Saint Marks, Florida
Current Conditions -  °F | °C
As of 12:53 PM on Friday 31 Oct 2014 (Local Time) from KTLH Reporting Station
Clear Clear  
Wind Chill: 70°   Ceiling: Unl
Heat Index: 70°   Visibility: 10mi
Dew Point: 38°   Wind: 7mph
Humidity: 31%   Direction: 320°NW
Pressure: 29.93"   Gusts: 21mph
Location:  30.16°N, 84.21°W
Report Text: KTLH 311653Z 32006G18KT 10SM CLR 21/03 A2993 RMK AO2 SLP133 T02110033 $
Loading
Personal Weather Stations






























Interactive Weather Map
Tropical Storm Tracking
New forecast layout! Learn more

10-Day Weather Forecast

Advertisements
Track Severe Weather on mobile